createdAt,value
2018-10-19T00:00:00.791Z,37.95
2018-10-19T00:02:28.355Z,42.03
2018-10-19T00:04:55.924Z,35.13
2018-10-19T00:07:23.417Z,41.55
2018-10-19T00:09:50.935Z,40.30
2018-10-19T00:12:18.438Z,42.38
2018-10-19T00:14:45.958Z,35.78
2018-10-19T00:17:13.556Z,39.45
2018-10-19T00:19:41.035Z,39.25
2018-10-19T00:22:08.551Z,36.75
2018-10-19T00:24:36.061Z,38.60
2018-10-19T00:27:03.653Z,38.35
2018-10-19T00:29:31.249Z,30.48
2018-10-19T00:31:59.282Z,35.98
2018-10-19T00:34:26.808Z,32.17
2018-10-19T00:36:54.365Z,33.78
2018-10-19T00:39:21.906Z,31.55
2018-10-19T00:41:49.398Z,32.80
2018-10-19T00:44:16.911Z,29.75
2018-10-19T00:46:44.453Z,38.05
2018-10-19T00:49:13.433Z,26.57
2018-10-19T00:51:40.971Z,29.40
2018-10-19T00:54:09.052Z,31.82
2018-10-19T00:56:36.608Z,25.23
2018-10-19T00:59:04.298Z,30.75
2018-10-19T01:01:31.973Z,25.65
2018-10-19T01:03:59.491Z,28.42
2018-10-19T01:06:27.095Z,28.10
2018-10-19T01:08:54.748Z,26.95
2018-10-19T01:11:22.251Z,26.48
2018-10-19T01:13:49.838Z,28.35
2018-10-19T01:16:17.421Z,26.15
2018-10-19T01:18:45.850Z,27.62
2018-10-19T01:21:13.433Z,26.65
2018-10-19T01:23:40.911Z,25.27
2018-10-19T01:26:08.441Z,29.63
2018-10-19T01:28:36.022Z,26.57
2018-10-19T01:31:03.565Z,24.43
2018-10-19T01:33:31.229Z,24.07
2018-10-19T01:35:58.797Z,21.23
2018-10-19T01:38:27.135Z,25.45
2018-10-19T01:40:54.651Z,21.82
2018-10-19T01:43:22.221Z,24.07
2018-10-19T01:45:55.635Z,23.38
2018-10-19T01:48:24.957Z,23.20
2018-10-19T01:50:52.542Z,23.15
2018-10-19T01:53:20.143Z,23.10
2018-10-19T01:55:47.706Z,19.70
2018-10-19T01:58:15.550Z,17.95
2018-10-19T02:00:43.943Z,16.80
2018-10-19T02:03:11.535Z,16.75
2018-10-19T02:05:39.548Z,15.93
2018-10-19T02:08:08.130Z,15.00
2018-10-19T02:10:35.691Z,13.43
2018-10-19T02:13:03.570Z,13.45
2018-10-19T02:15:31.491Z,15.68
2018-10-19T02:17:58.976Z,19.98
2018-10-19T02:20:26.512Z,16.70
2018-10-19T02:22:54.736Z,16.57
2018-10-19T02:25:22.271Z,17.25
2018-10-19T02:27:49.797Z,11.45
2018-10-19T02:30:17.454Z,19.87
2018-10-19T02:32:44.964Z,11.40
2018-10-19T02:35:12.589Z,13.90
2018-10-19T02:37:40.163Z,14.55
2018-10-19T02:40:08.305Z,17.20
2018-10-19T02:42:36.197Z,17.35
2018-10-19T02:45:04.010Z,12.82
2018-10-19T02:47:31.539Z,14.45
2018-10-19T02:49:59.090Z,17.42
2018-10-19T02:52:26.555Z,14.55
2018-10-19T02:54:54.053Z,17.23
2018-10-19T02:57:21.602Z,13.25
2018-10-19T02:59:49.133Z,13.78
2018-10-19T03:02:16.656Z,15.30
2018-10-19T03:04:44.184Z,18.30
2018-10-19T03:07:11.757Z,18.37
2018-10-19T03:09:39.357Z,17.37
2018-10-19T03:12:07.238Z,17.60
2018-10-19T03:14:34.740Z,17.73
2018-10-19T03:17:03.036Z,19.45
2018-10-19T03:19:30.530Z,22.67
2018-10-19T03:21:58.065Z,19.05
2018-10-19T03:24:25.643Z,23.35
2018-10-19T03:26:54.222Z,19.00
2018-10-19T03:29:21.804Z,18.42
2018-10-19T03:31:49.211Z,21.07
2018-10-19T03:34:16.699Z,16.60
2018-10-19T03:36:44.235Z,13.85
2018-10-19T03:39:11.864Z,10.53
2018-10-19T03:41:39.381Z,7.35
2018-10-19T03:44:06.928Z,7.53
2018-10-19T03:46:34.500Z,7.03
2018-10-19T03:49:02.051Z,7.50
2018-10-19T03:51:29.616Z,7.50
2018-10-19T03:53:57.128Z,7.70
2018-10-19T03:56:24.681Z,7.15
2018-10-19T03:58:52.270Z,7.03
2018-10-19T04:01:19.849Z,8.30
2018-10-19T04:03:47.371Z,6.15
2018-10-19T04:06:14.906Z,10.88
2018-10-19T04:08:42.460Z,8.23
2018-10-19T04:11:10.055Z,9.68
2018-10-19T04:13:38.350Z,10.13
2018-10-19T04:16:05.965Z,9.40
2018-10-19T04:18:33.761Z,7.30
2018-10-19T04:21:01.926Z,14.30
2018-10-19T04:23:29.488Z,11.18
2018-10-19T04:25:57.038Z,9.83
2018-10-19T04:28:24.692Z,6.22
2018-10-19T04:30:52.253Z,11.30
2018-10-19T04:33:19.796Z,11.83
2018-10-19T04:35:47.302Z,8.50
2018-10-19T04:38:14.843Z,12.98
2018-10-19T04:40:42.398Z,10.80
2018-10-19T04:43:10.515Z,16.90
2018-10-19T04:45:38.041Z,12.88
2018-10-19T04:48:06.574Z,35.92
2018-10-19T04:50:34.826Z,10.80
2018-10-19T04:53:02.423Z,13.80
2018-10-19T04:55:29.890Z,10.98
2018-10-19T04:57:57.430Z,22.37
2018-10-19T05:00:25.026Z,17.05
2018-10-19T05:02:52.599Z,17.82
2018-10-19T05:05:20.568Z,17.85
2018-10-19T05:07:48.023Z,13.30
2018-10-19T05:10:16.213Z,8.55
2018-10-19T05:12:44.679Z,19.37
2018-10-19T05:15:12.242Z,17.12
2018-10-19T05:17:39.747Z,8.38
2018-10-19T05:20:10.088Z,15.63
2018-10-19T05:22:37.778Z,9.95
2018-10-19T05:25:07.374Z,14.75
2018-10-19T05:27:34.975Z,19.75
2018-10-19T05:30:02.589Z,10.93
2018-10-19T05:32:30.147Z,14.95
2018-10-19T05:34:57.680Z,11.40
2018-10-19T05:37:25.234Z,10.25
2018-10-19T05:39:52.779Z,17.60
2018-10-19T05:42:23.053Z,10.38
2018-10-19T05:44:50.827Z,7.10
2018-10-19T05:47:18.485Z,6.92
2018-10-19T05:49:46.066Z,18.52
2018-10-19T05:52:13.784Z,8.75
2018-10-19T05:54:41.270Z,7.35
2018-10-19T05:57:08.800Z,9.63
2018-10-19T05:59:36.328Z,8.48
2018-10-19T06:02:03.966Z,5.37
2018-10-19T06:04:31.747Z,10.20
2018-10-19T06:06:59.384Z,12.07
2018-10-19T06:09:26.939Z,9.20
2018-10-19T06:11:54.553Z,6.00
2018-10-19T06:14:22.084Z,8.30
2018-10-19T06:16:49.736Z,5.40
2018-10-19T06:19:18.224Z,9.00
2018-10-19T06:21:45.776Z,17.32
2018-10-19T06:24:13.329Z,12.55
2018-10-19T06:26:40.983Z,13.38
2018-10-19T06:29:09.799Z,10.90
2018-10-19T06:31:37.320Z,12.43
2018-10-19T06:34:04.966Z,11.97
2018-10-19T06:36:32.517Z,17.32
2018-10-19T06:39:00.027Z,12.60
2018-10-19T06:41:27.632Z,17.25
2018-10-19T06:43:55.661Z,15.28
2018-10-19T06:46:23.524Z,11.57
2018-10-19T06:48:53.351Z,12.30
2018-10-19T06:51:21.572Z,13.88
2018-10-19T06:53:49.079Z,10.18
2018-10-19T06:56:16.729Z,5.78
2018-10-19T06:58:44.141Z,8.60
2018-10-19T07:01:11.694Z,8.83
2018-10-19T07:03:39.219Z,7.58
2018-10-19T07:06:06.798Z,7.00
2018-10-19T07:08:34.897Z,7.97
2018-10-19T07:11:02.519Z,10.13
2018-10-19T07:13:30.026Z,8.13
2018-10-19T07:15:57.655Z,7.08
2018-10-19T07:18:25.153Z,10.90
2018-10-19T07:20:52.682Z,11.00
2018-10-19T07:23:20.241Z,8.68
2018-10-19T07:25:47.921Z,8.08
2018-10-19T07:28:15.489Z,7.30
2018-10-19T07:30:43.078Z,8.25
2018-10-19T07:33:10.587Z,9.28
2018-10-19T07:35:38.134Z,8.85
2018-10-19T07:38:05.968Z,6.22
2018-10-19T07:40:33.450Z,7.65
2018-10-19T07:43:01.018Z,6.12
2018-10-19T07:45:28.562Z,6.10
2018-10-19T07:47:56.304Z,6.62
2018-10-19T07:50:23.728Z,6.53
2018-10-19T07:52:51.929Z,7.45
2018-10-19T07:55:19.506Z,7.53
2018-10-19T07:57:48.000Z,9.40
2018-10-19T08:00:15.699Z,5.50
2018-10-19T08:02:43.425Z,4.95
2018-10-19T08:05:11.337Z,6.92
2018-10-19T08:07:38.939Z,5.08
2018-10-19T08:10:08.785Z,6.03
2018-10-19T08:12:36.407Z,7.10
2018-10-19T08:15:04.752Z,4.72
2018-10-19T08:17:32.461Z,5.85
2018-10-19T08:20:00.158Z,3.65
2018-10-19T08:22:29.002Z,4.05
2018-10-19T08:24:57.333Z,5.65
2018-10-19T08:27:27.356Z,3.90
2018-10-19T08:29:55.552Z,4.22
2018-10-19T08:32:23.474Z,4.35
2018-10-19T08:34:51.092Z,4.67
2018-10-19T08:37:18.825Z,3.40
2018-10-19T08:39:46.385Z,3.90
2018-10-19T08:42:13.929Z,4.87
2018-10-19T08:44:41.455Z,4.25
2018-10-19T08:47:09.035Z,6.28
2018-10-19T08:49:36.601Z,8.18
2018-10-19T08:52:04.279Z,5.05
2018-10-19T08:54:32.334Z,4.25
2018-10-19T08:56:59.891Z,4.40
2018-10-19T08:59:27.570Z,3.83
2018-10-19T09:01:55.160Z,9.23
2018-10-19T09:04:22.688Z,2.92
2018-10-19T09:06:50.235Z,4.55
2018-10-19T09:09:17.892Z,3.08
2018-10-19T09:11:45.597Z,5.33
2018-10-19T09:14:24.504Z,3.62
2018-10-19T09:16:52.101Z,3.75
2018-10-19T09:19:19.658Z,7.12
2018-10-19T09:21:47.226Z,3.70
2018-10-19T09:24:14.818Z,3.95
2018-10-19T09:26:43.528Z,3.65
2018-10-19T09:29:11.995Z,2.95
2018-10-19T09:31:39.500Z,3.90
2018-10-19T09:34:07.021Z,3.85
2018-10-19T09:36:34.813Z,4.12
2018-10-19T09:39:02.298Z,7.75
2018-10-19T09:41:29.918Z,3.75
2018-10-19T09:43:57.430Z,5.08
2018-10-19T09:46:25.052Z,16.48
2018-10-19T09:48:52.757Z,10.30
2018-10-19T09:51:20.373Z,15.83
2018-10-19T09:53:48.500Z,7.60
2018-10-19T09:56:16.208Z,25.02
2018-10-19T09:58:43.748Z,9.73
2018-10-19T10:01:29.691Z,6.80
2018-10-19T10:03:58.352Z,5.45
2018-10-19T10:06:26.912Z,7.22
2018-10-19T10:08:54.815Z,6.83
2018-10-19T10:11:22.405Z,6.37
2018-10-19T10:13:50.203Z,7.20
2018-10-19T10:16:17.990Z,4.80
2018-10-19T10:18:45.577Z,7.30
2018-10-19T10:21:13.160Z,9.78
2018-10-19T10:23:41.330Z,8.15
2018-10-19T10:26:10.382Z,7.95
2018-10-19T10:28:37.965Z,5.97
2018-10-19T10:31:06.013Z,9.93
2018-10-19T10:33:33.572Z,6.03
2018-10-19T10:36:01.676Z,6.60
2018-10-19T10:38:29.270Z,4.95
2018-10-19T10:40:56.782Z,5.20
2018-10-19T10:43:24.338Z,4.65
2018-10-19T10:45:51.902Z,4.70
2018-10-19T10:48:19.442Z,3.50
2018-10-19T10:50:47.529Z,3.02
2018-10-19T10:53:15.345Z,4.35
2018-10-19T10:55:42.917Z,3.55
2018-10-19T10:58:10.741Z,3.40
2018-10-19T11:00:38.257Z,3.40
2018-10-19T11:03:05.793Z,3.72
2018-10-19T11:05:33.309Z,4.87
2018-10-19T11:08:00.860Z,7.00
2018-10-19T11:10:28.423Z,5.45
2018-10-19T11:12:56.028Z,6.30
2018-10-19T11:15:23.526Z,6.80
2018-10-19T11:17:51.057Z,8.58
2018-10-19T11:20:18.635Z,7.12
2018-10-19T11:22:46.185Z,6.37
2018-10-19T11:25:14.337Z,5.70
2018-10-19T11:27:41.892Z,4.95
2018-10-19T11:30:09.604Z,7.87
2018-10-19T11:32:37.177Z,7.00
2018-10-19T11:35:04.947Z,5.72
2018-10-19T11:37:32.541Z,5.47
2018-10-19T11:40:11.448Z,9.90
2018-10-19T11:42:38.946Z,7.40
2018-10-19T11:45:06.640Z,6.22
2018-10-19T11:47:34.231Z,5.15
2018-10-19T11:50:01.819Z,6.70
2018-10-19T11:52:29.373Z,6.25
2018-10-19T11:54:56.900Z,8.25
2018-10-19T11:57:24.429Z,13.93
2018-10-19T11:59:51.979Z,7.25
2018-10-19T12:02:19.555Z,6.25
2018-10-19T12:04:47.104Z,8.30
2018-10-19T12:07:14.737Z,7.00
2018-10-19T12:09:42.224Z,8.23
2018-10-19T12:12:09.864Z,6.50
2018-10-19T12:14:37.356Z,8.30
2018-10-19T12:17:05.061Z,7.55
2018-10-19T12:19:32.528Z,10.65
2018-10-19T12:22:00.070Z,7.97
2018-10-19T12:24:27.659Z,6.87
2018-10-19T12:26:55.290Z,7.80
2018-10-19T12:29:22.851Z,5.10
2018-10-19T12:31:50.371Z,5.15
2018-10-19T12:34:17.946Z,6.62
2018-10-19T12:36:45.523Z,6.58
2018-10-19T12:39:13.080Z,6.15
2018-10-19T12:41:40.654Z,7.28
2018-10-19T12:44:08.265Z,7.37
2018-10-19T12:46:50.211Z,5.15
2018-10-19T12:49:20.109Z,6.60
2018-10-19T12:51:47.697Z,7.65
2018-10-19T12:54:15.567Z,4.83
2018-10-19T12:56:43.086Z,6.07
2018-10-19T12:59:10.593Z,5.58
2018-10-19T13:01:38.150Z,5.20
2018-10-19T13:04:05.795Z,5.50
2018-10-19T13:06:33.412Z,9.10
2018-10-19T13:09:01.091Z,7.63
2018-10-19T13:11:28.756Z,7.62
2018-10-19T13:13:56.418Z,10.27
2018-10-19T13:16:24.126Z,9.90
2018-10-19T13:18:52.492Z,13.47
2018-10-19T13:21:20.098Z,13.63
2018-10-19T13:23:47.690Z,15.50
2018-10-19T13:26:15.245Z,17.20
2018-10-19T13:28:42.824Z,17.03
2018-10-19T13:31:10.357Z,19.80
2018-10-19T13:33:37.922Z,21.87
2018-10-19T13:36:05.772Z,17.12
2018-10-19T13:38:33.273Z,19.37
2018-10-19T13:41:00.904Z,18.73
2018-10-19T13:43:28.496Z,18.02
2018-10-19T13:45:56.142Z,19.65
2018-10-19T13:48:23.853Z,17.80
2018-10-19T13:50:51.442Z,22.00
2018-10-19T13:53:19.065Z,17.80
2018-10-19T13:55:46.658Z,22.37
2018-10-19T13:58:14.350Z,20.02
2018-10-19T14:00:41.877Z,22.55
2018-10-19T14:03:09.462Z,48.00
2018-10-19T14:05:37.279Z,37.40
2018-10-19T14:08:04.790Z,27.13
2018-10-19T14:10:32.323Z,23.00
2018-10-19T14:13:00.464Z,26.02
2018-10-19T14:15:28.028Z,21.70
2018-10-19T14:17:55.565Z,22.50
2018-10-19T14:20:23.107Z,23.87
2018-10-19T14:22:50.692Z,31.90
2018-10-19T14:25:18.291Z,31.07
2018-10-19T14:27:46.088Z,26.05
2018-10-19T14:30:15.026Z,28.17
2018-10-19T14:32:43.907Z,24.10
2018-10-19T14:35:12.239Z,23.07
2018-10-19T14:37:40.882Z,19.45
2018-10-19T14:40:10.859Z,25.62
2018-10-19T14:42:38.935Z,30.85
2018-10-19T14:45:08.301Z,26.65
2018-10-19T14:47:36.841Z,25.17
2018-10-19T14:50:05.070Z,27.85
2018-10-19T14:52:33.018Z,28.57
2018-10-19T14:55:00.576Z,36.03
2018-10-19T14:57:28.082Z,31.40
2018-10-19T14:59:55.639Z,27.22
2018-10-19T15:02:23.217Z,27.50
2018-10-19T15:04:50.731Z,24.35
2018-10-19T15:07:18.348Z,28.35
2018-10-19T15:09:46.124Z,25.02
2018-10-19T15:12:13.591Z,24.50
2018-10-19T15:14:41.121Z,26.90
2018-10-19T15:17:08.677Z,24.72
2018-10-19T15:19:36.211Z,21.37
2018-10-19T15:22:03.803Z,32.20
2018-10-19T15:24:31.395Z,23.00
2018-10-19T15:26:58.903Z,45.40
2018-10-19T15:29:26.485Z,63.80
2018-10-19T15:31:54.616Z,39.40
2018-10-19T15:34:23.067Z,32.05
2018-10-19T15:36:50.593Z,31.68
2018-10-19T15:39:18.161Z,29.35
2018-10-19T15:41:45.763Z,25.85
2018-10-19T15:44:13.332Z,29.52
2018-10-19T15:46:41.056Z,26.65
2018-10-19T15:49:08.584Z,29.35
2018-10-19T15:51:36.107Z,29.45
2018-10-19T15:54:03.792Z,31.85
2018-10-19T15:56:31.513Z,47.83
2018-10-19T15:58:59.651Z,42.67
2018-10-19T16:01:27.214Z,52.78
2018-10-19T16:03:55.677Z,51.55
2018-10-19T16:06:23.235Z,38.42
2018-10-19T16:08:50.785Z,37.13
2018-10-19T16:11:18.418Z,34.25
2018-10-19T16:13:45.906Z,39.00
2018-10-19T16:16:13.929Z,34.53
2018-10-19T16:18:41.477Z,35.13
2018-10-19T16:21:09.158Z,29.35
2018-10-19T16:23:37.310Z,34.08
2018-10-19T16:26:04.982Z,38.15
2018-10-19T16:28:32.715Z,26.85
2018-10-19T16:31:00.198Z,35.75
2018-10-19T16:33:27.834Z,51.83
2018-10-19T16:35:55.346Z,58.98
2018-10-19T16:38:23.036Z,52.78
2018-10-19T16:40:50.756Z,43.28
2018-10-19T16:43:18.272Z,54.98
2018-10-19T16:45:45.967Z,33.50
2018-10-19T16:48:13.579Z,35.45
2018-10-19T16:50:41.091Z,34.50
2018-10-19T16:53:08.761Z,32.17
2018-10-19T16:55:36.223Z,26.68
2018-10-19T16:58:03.995Z,27.22
2018-10-19T17:00:31.663Z,37.53
2018-10-19T17:02:59.344Z,32.17
2018-10-19T17:05:26.803Z,29.40
2018-10-19T17:07:54.369Z,31.93
2018-10-19T17:10:21.962Z,36.38
2018-10-19T17:12:49.595Z,37.28
2018-10-19T17:15:17.284Z,34.63
2018-10-19T17:17:44.779Z,45.80
2018-10-19T17:20:12.380Z,41.18
2018-10-19T17:22:39.939Z,38.48
2018-10-19T17:25:09.443Z,42.30
2018-10-19T17:27:37.036Z,36.55
2018-10-19T17:30:06.786Z,43.25
2018-10-19T17:32:34.342Z,31.42
2018-10-19T17:35:01.915Z,37.40
2018-10-19T17:37:29.535Z,55.05
2018-10-19T17:39:57.039Z,51.53
2018-10-19T17:42:24.606Z,50.38
2018-10-19T17:44:52.155Z,52.17
2018-10-19T17:47:19.776Z,39.65
2018-10-19T17:49:47.332Z,44.83
2018-10-19T17:52:14.908Z,37.73
2018-10-19T17:54:42.471Z,40.65
2018-10-19T17:57:10.100Z,35.40
2018-10-19T17:59:37.654Z,41.28
2018-10-19T18:02:05.528Z,44.18
2018-10-19T18:04:33.179Z,46.30
2018-10-19T18:07:00.736Z,41.58
2018-10-19T18:09:29.094Z,42.00
2018-10-19T18:11:56.635Z,38.08
2018-10-19T18:14:24.232Z,38.75
2018-10-19T18:16:51.796Z,44.27
2018-10-19T18:19:19.512Z,41.88
2018-10-19T18:21:47.322Z,42.40
2018-10-19T18:24:14.705Z,45.63
2018-10-19T18:26:42.298Z,51.23
2018-10-19T18:29:10.314Z,43.48
2018-10-19T18:31:37.912Z,43.08
2018-10-19T18:34:05.506Z,47.75
2018-10-19T18:36:33.075Z,47.23
2018-10-19T18:39:00.620Z,37.60
2018-10-19T18:41:28.196Z,39.33
2018-10-19T18:43:55.849Z,39.55
2018-10-19T18:46:23.443Z,46.20
2018-10-19T18:48:51.015Z,42.90
2018-10-19T18:51:18.665Z,43.55
2018-10-19T18:53:46.243Z,41.60
2018-10-19T18:56:13.946Z,42.88
2018-10-19T18:58:41.529Z,49.33
2018-10-19T19:01:09.087Z,51.42
2018-10-19T19:03:36.719Z,50.75
2018-10-19T19:06:04.502Z,49.95
2018-10-19T19:08:32.136Z,53.40
2018-10-19T19:10:59.674Z,39.98
2018-10-19T19:13:28.619Z,37.30
2018-10-19T19:15:56.571Z,44.65
2018-10-19T19:18:24.165Z,46.35
2018-10-19T19:20:51.774Z,48.13
2018-10-19T19:23:19.404Z,51.68
2018-10-19T19:25:52.702Z,47.27
2018-10-19T19:28:20.254Z,50.50
2018-10-19T19:30:47.828Z,45.78
2018-10-19T19:33:21.075Z,47.88
2018-10-19T19:35:48.750Z,45.15
2018-10-19T19:38:16.391Z,48.33
2018-10-19T19:40:49.719Z,50.33
2018-10-19T19:43:17.306Z,48.08
2018-10-19T19:45:44.893Z,52.62
2018-10-19T19:48:18.037Z,45.10
2018-10-19T19:50:45.611Z,40.75
2018-10-19T19:53:13.269Z,51.60
2018-10-19T19:55:40.884Z,42.55
2018-10-19T19:58:08.492Z,44.05
2018-10-19T20:00:36.020Z,42.38
2018-10-19T20:03:03.719Z,41.55
2018-10-19T20:05:31.370Z,50.78
2018-10-19T20:07:59.349Z,42.58
2018-10-19T20:10:29.200Z,44.65
2018-10-19T20:12:57.750Z,45.67
2018-10-19T20:15:26.019Z,40.85
2018-10-19T20:17:53.644Z,51.42
2018-10-19T20:20:21.231Z,49.50
2018-10-19T20:22:48.808Z,44.48
2018-10-19T20:25:17.073Z,40.85
2018-10-19T20:27:44.632Z,45.30
2018-10-19T20:30:13.680Z,42.27
2018-10-19T20:32:41.398Z,38.40
2018-10-19T20:35:10.314Z,36.85
2018-10-19T20:37:38.721Z,40.38
2018-10-19T20:40:07.041Z,38.55
2018-10-19T20:42:34.670Z,40.40
2018-10-19T20:45:02.514Z,38.88
2018-10-19T20:47:30.141Z,36.88
2018-10-19T20:49:57.828Z,42.23
2018-10-19T20:52:25.399Z,36.25
2018-10-19T20:54:54.863Z,35.55
2018-10-19T20:57:22.487Z,39.27
2018-10-19T20:59:50.024Z,43.38
2018-10-19T21:02:17.650Z,37.65
2018-10-19T21:04:45.215Z,41.68
2018-10-19T21:07:12.875Z,36.15
2018-10-19T21:09:40.815Z,34.78
2018-10-19T21:12:09.217Z,31.75
2018-10-19T21:14:38.668Z,31.60
2018-10-19T21:17:06.766Z,39.98
2018-10-19T21:19:35.393Z,38.75
2018-10-19T21:22:03.340Z,44.13
2018-10-19T21:24:31.117Z,46.05
2018-10-19T21:26:59.180Z,45.92
2018-10-19T21:29:26.795Z,38.75
2018-10-19T21:31:56.080Z,37.50
2018-10-19T21:34:23.644Z,38.05
2018-10-19T21:36:53.286Z,41.68
2018-10-19T21:39:20.873Z,39.78
2018-10-19T21:41:48.449Z,36.95
2018-10-19T21:44:16.078Z,35.30
2018-10-19T21:46:44.633Z,37.48
2018-10-19T21:49:12.196Z,37.85
2018-10-19T21:51:40.959Z,37.75
2018-10-19T21:54:08.545Z,40.12
2018-10-19T21:56:36.330Z,42.17
2018-10-19T21:59:05.408Z,32.20
2018-10-19T22:01:34.159Z,39.50
2018-10-19T22:04:02.661Z,36.93
2018-10-19T22:06:30.217Z,37.80
2018-10-19T22:08:58.473Z,39.90
2018-10-19T22:11:26.094Z,39.42
2018-10-19T22:13:54.108Z,35.15
2018-10-19T22:16:21.867Z,41.83
2018-10-19T22:18:49.506Z,37.85
2018-10-19T22:21:17.063Z,34.48
2018-10-19T22:23:44.599Z,33.05
2018-10-19T22:26:12.271Z,35.75
2018-10-19T22:28:39.826Z,34.58
2018-10-19T22:31:11.434Z,32.65
2018-10-19T22:33:38.925Z,42.93
2018-10-19T22:36:06.496Z,42.48
2018-10-19T22:38:34.727Z,40.88
2018-10-19T22:41:03.494Z,40.63
2018-10-19T22:43:31.013Z,47.70
2018-10-19T22:45:58.572Z,47.08
2018-10-19T22:48:26.121Z,49.98
2018-10-19T22:50:53.648Z,42.88
2018-10-19T22:53:22.196Z,45.60
2018-10-19T22:55:49.852Z,41.37
2018-10-19T22:58:18.380Z,50.63
2018-10-19T23:00:45.982Z,42.23
2018-10-19T23:03:13.528Z,49.80
2018-10-19T23:05:41.084Z,45.80
2018-10-19T23:08:08.647Z,45.73
2018-10-19T23:10:37.157Z,53.75
2018-10-19T23:13:04.796Z,55.43
2018-10-19T23:15:32.365Z,54.90
2018-10-19T23:17:59.881Z,50.05
2018-10-19T23:20:27.907Z,49.13
2018-10-19T23:22:55.557Z,54.95
2018-10-19T23:25:23.153Z,52.30
2018-10-19T23:27:50.746Z,49.98
2018-10-19T23:30:18.367Z,51.77
2018-10-19T23:32:45.956Z,54.38
2018-10-19T23:35:13.612Z,57.33
2018-10-19T23:37:41.807Z,59.18
2018-10-19T23:40:10.071Z,55.90
2018-10-19T23:42:39.001Z,55.58
2018-10-19T23:45:07.588Z,59.23
2018-10-19T23:47:35.207Z,52.67
2018-10-19T23:50:02.870Z,46.25
2018-10-19T23:52:30.408Z,54.23
2018-10-19T23:54:58.292Z,44.48
2018-10-19T23:57:26.672Z,54.55
2018-10-19T23:59:54.954Z,50.73
